SpazioLink.com il tuo mini portale

Terremoti in Italia, posizione geografica

Spaziolink il MiniPortale

Home Sfondi Screenmates SuperEnalotto Posizione navi Terremoti Calendario feste Barzellette Frasi utili Giochi Meteo Gifs Software Ricerca
Lista dei terremoti in Italia in tempo reale dopo l'elaborazione dei valori rilevati dai sensori dislocati nelle zone interessate, comprendenti gli eventi sismici di elevata magnitudo sull'intero globo, per visualizzare la posizione dell'epicentro su Google Maps cliccare sul nome del luogo evidenziato in blu.
DATA ORA MAG ≥ 2 ZONA REGIONE LAT LONG PROF km
22/01/2022 06:46:54 ML 3.1 2 km a ovest di Sapri (SA) Campania 40.08 15.61 303.8
22/01/2022 06:17:06 Mwp 6.3 Fox Islands, Aleutian Islands, United States (Sea: United States) Mondo 53.28 -166.70 19.5
22/01/2022 03:26:14 Mwp 6.1 Talaud Islands, Indonesia (Sea: Indonesia) Mondo 3.65 126.76 34.8
22/01/2022 02:22:09 ML 2.2 Confine Austria-Germania (AUSTRIA, GERMANIA) Mondo 47.17 10.65 16.9
21/01/2022 17:08:37 Mwp 6.3 Shikoku, Japan (Sea: Japan) Mondo 32.61 132.00 48.6
21/01/2022 13:21:16 ML 2.4 Costa Calabra sud-occidentale (Catanzaro, Vibo Valentia, Reggio di Calabria) Mare 38.47 15.63 136.3
21/01/2022 11:49:40 ML 2.3 Tirreno Meridionale (MARE) Mare 38.88 15.61 184.0
21/01/2022 10:04:20 ML 2.2 Confine Austria-Germania (AUSTRIA, GERMANIA) Mondo 47.15 10.65 19.7
20/01/2022 20:44:34 ML 2.2 Costa Calabra sud-occidentale (Catanzaro, Vibo Valentia, Reggio di Calabria) Mare 38.82 16.05 10.0
20/01/2022 18:54:12 ML 2.6 Tirreno Meridionale (MARE) Mare 38.60 13.71 32.3
20/01/2022 17:15:58 ML 2.0 9 km a sud-est di Norcia (PG) Umbria 42.71 13.13 10.8
20/01/2022 10:19:57 Mw 4.3 Costa Calabra sud-occidentale (Catanzaro, Vibo Valentia, Reggio di Calabria) Mare 38.82 16.07 9.9
20/01/2022 00:50:24 ML 3.1 Costa Marchigiana Fermana (Fermo) Mare 43.26 14.17 38.0
19/01/2022 21:23:51 ML 2.0 2 km a est di Micigliano (RI) Lazio 42.46 13.08 11.2
19/01/2022 13:37:55 ML 2.2 2 km a est di Montereale (AQ) Abruzzo 42.52 13.26 16.3
19/01/2022 08:34:03 ML 2.1 Isole Eolie (Messina) Mare 38.54 15.28 129.9
19/01/2022 05:56:06 ML 2.2 2 km a nord di Demonte (CN) Piemonte 44.33 7.30 11.3
18/01/2022 23:33:07 ML 2.6 3 km a nord-ovest di Corte Franca (BS) Lombardia 45.66 10.00 5.0
18/01/2022 22:09:14 ML 3.1 Czech Rep. (Land) Mondo 48.76 14.36 32.0
18/01/2022 21:47:20 ML 2.8 6 km a sud-est di Capitignano (AQ) Abruzzo 42.49 13.36 9.9
18/01/2022 19:52:17 ML 3.4 Isole Eolie (Messina) Mare 38.62 14.25 415.1
18/01/2022 16:24:29 ML 2.0 2 km a nord di Demonte (CN) Piemonte 44.34 7.30 11.9
18/01/2022 15:14:07 ML 2.2 Tirreno Meridionale (MARE) Mare 38.49 15.46 153.9
17/01/2022 22:09:48 ML 2.3 8 km a nord-ovest di Monte Sant`Angelo (FG) Puglia 41.77 15.91 25.6
17/01/2022 18:45:30 ML 2.0 1 km a est di Monte Cavallo (MC) Marche 42.99 13.02 7.8
17/01/2022 14:46:43 ML 2.5 Adriatico Centrale (MARE) Mare 42.62 16.06 8.8
16/01/2022 14:14:38 ML 2.2 Mare di Corsica (MARE) Mare 42.70 6.92 10.0
16/01/2022 13:52:11 Mwp 6.0 Papua New Guinea (Sea) Mondo -6.43 154.79 401.6
16/01/2022 12:48:07 mb 5.2 Greece (Sea) Mondo 40.01 24.33 10.0
16/01/2022 04:42:27 ML 3.0 Isole Eolie (Messina) Mare 38.72 15.18 259.8
16/01/2022 02:19:57 ML 2.1 5 km a nord di Salaparuta (TP) Sicilia 37.80 13.00 9.6
16/01/2022 02:08:58 ML 2.0 Mar Ionio Meridionale (MARE) Mare 37.26 15.81 10.0
16/01/2022 00:51:37 ML 2.0 5 km a ovest di Visso (MC) Marche 42.94 13.02 10.9
15/01/2022 21:12:33 ML 2.9 Slovenia (SLOVENIA) Mondo 45.99 15.03 3.6
15/01/2022 20:00:02 ML 2.1 13 km a sud di San Giovanni Rotondo (FG) Puglia 41.60 15.74 19.3
15/01/2022 13:08:16 ML 2.4 4 km a nord-ovest di Fiuminata (MC) Marche 43.22 12.91 43.3
15/01/2022 09:42:12 ML 2.2 Costa Siciliana nord-orientale (Messina) Mare 38.13 14.30 1.3
15/01/2022 09:27:44 ML 2.0 6 km a sud-est di Nocera Umbra (PG) Umbria 43.08 12.85 9.5
15/01/2022 03:54:46 ML 2.5 Czech Rep. (Land) Mondo 48.82 14.34 37.9
Locations of visitors to this page (counting)
- subnet mask - partners - ipcheck - favicon - speedtest - canale youtube - programmone